KSJN/SJN METAR and TAF weather

Enter ICAO airport designator
Station Type Date Time Source
KSJN METAR 2020/01/23 08:54 UTC NOAA

KSJN 230854Z AUTO 18006KT 10SM CLR M01/M03 A3018 RMK AO2 SLP202 T10061028 56004


Station Type Date Time Source
KSJN Decoded METAR 2020/01/23 08:54 UTC NOAA

ST JOHNS INDUSTRIAL AIRPRK, AZ, United States (KSJN) 34-31N 109-23W 1745M
Jan 23, 2020 - 03:54 AM EST / 2020.01.23 0854 UTC
Wind: from the S (180 degrees) at 7 MPH (6 KT):0
Visibility: 10 mile(s):0
Sky conditions: clear
Temperature: 30.9 F (-0.6 C)
Windchill: 24 F (-4 C):1
Dew Point: 27.0 F (-2.8 C)
Relative Humidity: 85%
Pressure (altimeter): 30.18 in. Hg (1022 hPa)
Pressure tendency: 0.01 inches (0.4 hPa) lower than three hours ago
ob: KSJN 230854Z AUTO 18006KT 10SM CLR M01/M03 A3018 RMK AO2 SLP202 T10061028 56004
cycle: 9

Station Type Date Time Source
KSJN TAF UTC NOAA

Error!

Example: see airport list